sensor_id;sensor_type;location;lat;lon;timestamp;temperature;humidity
10411;DHT22;5251;52.112;8.606;2023-02-05T00:01:28;4.20;97.30
10411;DHT22;5251;52.112;8.606;2023-02-05T00:03:54;4.20;97.30
10411;DHT22;5251;52.112;8.606;2023-02-05T00:06:20;4.20;97.30
10411;DHT22;5251;52.112;8.606;2023-02-05T00:08:45;4.10;97.20
10411;DHT22;5251;52.112;8.606;2023-02-05T00:11:11;4.10;97.30
10411;DHT22;5251;52.112;8.606;2023-02-05T00:13:39;4.10;97.30
10411;DHT22;5251;52.112;8.606;2023-02-05T00:16:33;4.10;97.40
10411;DHT22;5251;52.112;8.606;2023-02-05T00:18:58;4.10;97.40
10411;DHT22;5251;52.112;8.606;2023-02-05T00:21:24;4.10;97.40
10411;DHT22;5251;52.112;8.606;2023-02-05T00:23:50;4.10;97.40
10411;DHT22;5251;52.112;8.606;2023-02-05T00:26:16;4.10;97.50
10411;DHT22;5251;52.112;8.606;2023-02-05T00:28:42;4.10;97.50
10411;DHT22;5251;52.112;8.606;2023-02-05T00:31:11;4.10;97.60
10411;DHT22;5251;52.112;8.606;2023-02-05T00:33:37;4.10;97.60
10411;DHT22;5251;52.112;8.606;2023-02-05T00:36:03;4.10;97.60
10411;DHT22;5251;52.112;8.606;2023-02-05T00:38:28;4.20;97.70
10411;DHT22;5251;52.112;8.606;2023-02-05T00:40:54;4.20;97.70
10411;DHT22;5251;52.112;8.606;2023-02-05T00:43:20;4.20;97.70
10411;DHT22;5251;52.112;8.606;2023-02-05T00:45:45;4.20;97.70
10411;DHT22;5251;52.112;8.606;2023-02-05T00:48:11;4.20;97.60
10411;DHT22;5251;52.112;8.606;2023-02-05T00:50:37;4.20;97.60
10411;DHT22;5251;52.112;8.606;2023-02-05T00:53:02;4.30;97.60
10411;DHT22;5251;52.112;8.606;2023-02-05T00:55:28;4.20;97.50
10411;DHT22;5251;52.112;8.606;2023-02-05T00:57:54;4.20;97.50
10411;DHT22;5251;52.112;8.606;2023-02-05T01:00:19;4.20;97.50
10411;DHT22;5251;52.112;8.606;2023-02-05T01:02:45;4.20;97.50
10411;DHT22;5251;52.112;8.606;2023-02-05T01:05:11;4.20;97.40
10411;DHT22;5251;52.112;8.606;2023-02-05T01:07:36;4.20;97.40
10411;DHT22;5251;52.112;8.606;2023-02-05T01:10:03;4.10;97.40
10411;DHT22;5251;52.112;8.606;2023-02-05T01:12:29;4.10;97.30
10411;DHT22;5251;52.112;8.606;2023-02-05T01:15:00;4.10;97.30
10411;DHT22;5251;52.112;8.606;2023-02-05T01:17:26;4.10;97.40
10411;DHT22;5251;52.112;8.606;2023-02-05T01:19:52;4.00;97.40
10411;DHT22;5251;52.112;8.606;2023-02-05T01:22:17;4.00;97.40
10411;DHT22;5251;52.112;8.606;2023-02-05T01:24:43;4.00;97.40
10411;DHT22;5251;52.112;8.606;2023-02-05T01:27:08;4.00;97.40
10411;DHT22;5251;52.112;8.606;2023-02-05T01:29:34;4.00;97.40
10411;DHT22;5251;52.112;8.606;2023-02-05T01:32:00;3.90;97.30
10411;DHT22;5251;52.112;8.606;2023-02-05T01:34:25;3.90;97.40
10411;DHT22;5251;52.112;8.606;2023-02-05T01:36:51;3.90;97.50
10411;DHT22;5251;52.112;8.606;2023-02-05T01:39:16;3.90;97.50
10411;DHT22;5251;52.112;8.606;2023-02-05T01:41:42;3.80;97.40
10411;DHT22;5251;52.112;8.606;2023-02-05T01:44:20;3.80;97.40
10411;DHT22;5251;52.112;8.606;2023-02-05T01:46:51;3.80;97.40
10411;DHT22;5251;52.112;8.606;2023-02-05T01:49:29;3.70;97.50
10411;DHT22;5251;52.112;8.606;2023-02-05T01:51:59;3.70;97.60
10411;DHT22;5251;52.112;8.606;2023-02-05T01:54:28;3.70;97.70
10411;DHT22;5251;52.112;8.606;2023-02-05T01:57:00;3.70;97.80
10411;DHT22;5251;52.112;8.606;2023-02-05T01:59:30;3.70;98.00
10411;DHT22;5251;52.112;8.606;2023-02-05T02:01:58;3.70;98.10
10411;DHT22;5251;52.112;8.606;2023-02-05T02:04:40;3.70;98.20
10411;DHT22;5251;52.112;8.606;2023-02-05T02:07:09;3.80;98.40
10411;DHT22;5251;52.112;8.606;2023-02-05T02:09:35;3.80;98.50
10411;DHT22;5251;52.112;8.606;2023-02-05T02:12:01;3.90;98.60
10411;DHT22;5251;52.112;8.606;2023-02-05T02:14:30;3.90;98.60
10411;DHT22;5251;52.112;8.606;2023-02-05T02:16:56;4.00;98.70
10411;DHT22;5251;52.112;8.606;2023-02-05T02:30:26;4.30;98.60
10411;DHT22;5251;52.112;8.606;2023-02-05T02:33:26;4.30;98.90
10411;DHT22;5251;52.112;8.606;2023-02-05T02:36:08;4.40;98.60
10411;DHT22;5251;52.112;8.606;2023-02-05T02:38:43;4.40;98.50
10411;DHT22;5251;52.112;8.606;2023-02-05T02:41:59;4.50;98.40
10411;DHT22;5251;52.112;8.606;2023-02-05T02:44:11;4.50;98.40
10411;DHT22;5251;52.112;8.606;2023-02-05T02:46:47;4.60;98.50
10411;DHT22;5251;52.112;8.606;2023-02-05T02:49:18;4.60;98.50
10411;DHT22;5251;52.112;8.606;2023-02-05T02:51:46;4.70;98.50
10411;DHT22;5251;52.112;8.606;2023-02-05T02:54:16;4.70;98.50
10411;DHT22;5251;52.112;8.606;2023-02-05T02:56:43;4.70;98.40
10411;DHT22;5251;52.112;8.606;2023-02-05T02:59:12;4.80;98.30
10411;DHT22;5251;52.112;8.606;2023-02-05T03:01:40;4.80;98.30
10411;DHT22;5251;52.112;8.606;2023-02-05T03:04:21;4.90;98.30
10411;DHT22;5251;52.112;8.606;2023-02-05T03:06:51;4.90;98.30
10411;DHT22;5251;52.112;8.606;2023-02-05T03:09:26;4.90;98.20
10411;DHT22;5251;52.112;8.606;2023-02-05T03:11:54;5.00;98.20
10411;DHT22;5251;52.112;8.606;2023-02-05T03:14:20;5.00;98.10
10411;DHT22;5251;52.112;8.606;2023-02-05T03:16:45;5.00;98.10
10411;DHT22;5251;52.112;8.606;2023-02-05T03:19:11;5.00;98.20
10411;DHT22;5251;52.112;8.606;2023-02-05T03:21:46;5.00;98.20
10411;DHT22;5251;52.112;8.606;2023-02-05T03:24:13;5.10;98.20
10411;DHT22;5251;52.112;8.606;2023-02-05T03:26:39;5.10;98.20
10411;DHT22;5251;52.112;8.606;2023-02-05T03:29:08;5.10;98.20
10411;DHT22;5251;52.112;8.606;2023-02-05T03:31:39;5.10;98.20
10411;DHT22;5251;52.112;8.606;2023-02-05T03:40:04;5.20;98.10
10411;DHT22;5251;52.112;8.606;2023-02-05T03:45:16;5.20;98.10
10411;DHT22;5251;52.112;8.606;2023-02-05T03:51:19;5.10;97.90
10411;DHT22;5251;52.112;8.606;2023-02-05T03:54:12;5.20;98.00
10411;DHT22;5251;52.112;8.606;2023-02-05T03:56:58;5.20;98.10
10411;DHT22;5251;52.112;8.606;2023-02-05T03:59:25;5.20;98.10
10411;DHT22;5251;52.112;8.606;2023-02-05T04:01:52;5.20;98.10
10411;DHT22;5251;52.112;8.606;2023-02-05T04:04:19;5.20;98.10
10411;DHT22;5251;52.112;8.606;2023-02-05T04:06:50;5.20;98.20
10411;DHT22;5251;52.112;8.606;2023-02-05T04:09:16;5.30;98.20
10411;DHT22;5251;52.112;8.606;2023-02-05T04:11:41;5.30;98.20
10411;DHT22;5251;52.112;8.606;2023-02-05T04:14:07;5.30;98.30
10411;DHT22;5251;52.112;8.606;2023-02-05T04:16:33;5.30;98.30
10411;DHT22;5251;52.112;8.606;2023-02-05T04:18:58;5.30;98.30
10411;DHT22;5251;52.112;8.606;2023-02-05T04:21:24;5.40;98.40
10411;DHT22;5251;52.112;8.606;2023-02-05T04:23:49;5.40;98.30
10411;DHT22;5251;52.112;8.606;2023-02-05T04:26:15;5.40;98.40
10411;DHT22;5251;52.112;8.606;2023-02-05T04:28:41;5.40;98.30
10411;DHT22;5251;52.112;8.606;2023-02-05T04:31:08;5.50;98.40
10411;DHT22;5251;52.112;8.606;2023-02-05T04:33:33;5.50;98.40
10411;DHT22;5251;52.112;8.606;2023-02-05T04:35:59;5.50;98.40
10411;DHT22;5251;52.112;8.606;2023-02-05T04:38:26;5.50;98.40
10411;DHT22;5251;52.112;8.606;2023-02-05T04:40:51;5.60;98.40
10411;DHT22;5251;52.112;8.606;2023-02-05T04:43:17;5.60;98.50
10411;DHT22;5251;52.112;8.606;2023-02-05T04:45:42;5.60;98.40
10411;DHT22;5251;52.112;8.606;2023-02-05T04:48:08;5.60;98.50
10411;DHT22;5251;52.112;8.606;2023-02-05T04:50:34;5.70;98.60
10411;DHT22;5251;52.112;8.606;2023-02-05T04:52:59;5.70;98.50
10411;DHT22;5251;52.112;8.606;2023-02-05T04:55:27;5.70;98.60
10411;DHT22;5251;52.112;8.606;2023-02-05T04:57:52;5.70;98.60
10411;DHT22;5251;52.112;8.606;2023-02-05T05:00:18;5.70;98.60
10411;DHT22;5251;52.112;8.606;2023-02-05T05:02:44;5.70;98.60
10411;DHT22;5251;52.112;8.606;2023-02-05T05:05:09;5.70;98.50
10411;DHT22;5251;52.112;8.606;2023-02-05T05:07:36;5.70;98.50
10411;DHT22;5251;52.112;8.606;2023-02-05T05:10:03;5.70;98.50
10411;DHT22;5251;52.112;8.606;2023-02-05T05:12:28;5.70;98.50
10411;DHT22;5251;52.112;8.606;2023-02-05T05:14:54;5.80;98.50
10411;DHT22;5251;52.112;8.606;2023-02-05T05:17:19;5.70;98.40
10411;DHT22;5251;52.112;8.606;2023-02-05T05:19:45;5.80;98.50
10411;DHT22;5251;52.112;8.606;2023-02-05T05:22:10;5.80;98.40
10411;DHT22;5251;52.112;8.606;2023-02-05T05:24:36;5.80;98.40
10411;DHT22;5251;52.112;8.606;2023-02-05T05:27:02;5.80;98.40
10411;DHT22;5251;52.112;8.606;2023-02-05T05:29:27;5.80;98.40
10411;DHT22;5251;52.112;8.606;2023-02-05T05:31:53;5.80;98.40
10411;DHT22;5251;52.112;8.606;2023-02-05T05:34:19;5.80;98.40
10411;DHT22;5251;52.112;8.606;2023-02-05T05:36:45;5.90;98.40
10411;DHT22;5251;52.112;8.606;2023-02-05T05:39:12;5.80;98.30
10411;DHT22;5251;52.112;8.606;2023-02-05T05:41:56;5.80;98.40
10411;DHT22;5251;52.112;8.606;2023-02-05T05:44:40;5.90;98.50
10411;DHT22;5251;52.112;8.606;2023-02-05T05:47:06;5.80;98.50
10411;DHT22;5251;52.112;8.606;2023-02-05T05:49:31;5.90;98.60
10411;DHT22;5251;52.112;8.606;2023-02-05T05:51:57;5.90;98.70
10411;DHT22;5251;52.112;8.606;2023-02-05T05:54:22;5.90;98.70
10411;DHT22;5251;52.112;8.606;2023-02-05T05:56:48;5.90;98.70
10411;DHT22;5251;52.112;8.606;2023-02-05T05:59:14;5.90;98.80
10411;DHT22;5251;52.112;8.606;2023-02-05T06:01:39;6.00;98.80
10411;DHT22;5251;52.112;8.606;2023-02-05T06:04:05;6.00;98.80
10411;DHT22;5251;52.112;8.606;2023-02-05T06:06:30;6.00;98.90
10411;DHT22;5251;52.112;8.606;2023-02-05T06:08:56;6.00;98.90
10411;DHT22;5251;52.112;8.606;2023-02-05T06:11:22;6.00;98.90
10411;DHT22;5251;52.112;8.606;2023-02-05T06:13:47;6.00;99.00
10411;DHT22;5251;52.112;8.606;2023-02-05T06:16:13;6.00;99.00
10411;DHT22;5251;52.112;8.606;2023-02-05T06:18:38;6.10;99.10
10411;DHT22;5251;52.112;8.606;2023-02-05T06:21:04;6.00;99.00
10411;DHT22;5251;52.112;8.606;2023-02-05T06:23:31;6.10;99.10
10411;DHT22;5251;52.112;8.606;2023-02-05T06:25:57;6.10;99.10
10411;DHT22;5251;52.112;8.606;2023-02-05T06:28:23;6.10;99.10
10411;DHT22;5251;52.112;8.606;2023-02-05T06:30:48;6.10;99.20
10411;DHT22;5251;52.112;8.606;2023-02-05T06:33:14;6.10;99.10
10411;DHT22;5251;52.112;8.606;2023-02-05T06:35:40;6.10;99.10
10411;DHT22;5251;52.112;8.606;2023-02-05T06:38:06;6.20;99.20
10411;DHT22;5251;52.112;8.606;2023-02-05T06:40:32;6.30;99.20
10411;DHT22;5251;52.112;8.606;2023-02-05T06:42:58;6.20;99.20
10411;DHT22;5251;52.112;8.606;2023-02-05T06:45:23;6.20;99.20
10411;DHT22;5251;52.112;8.606;2023-02-05T06:47:49;6.20;99.20
10411;DHT22;5251;52.112;8.606;2023-02-05T06:50:17;6.20;99.30
10411;DHT22;5251;52.112;8.606;2023-02-05T06:52:42;6.20;99.30
10411;DHT22;5251;52.112;8.606;2023-02-05T06:55:08;6.30;99.40
10411;DHT22;5251;52.112;8.606;2023-02-05T06:57:34;6.30;99.40
10411;DHT22;5251;52.112;8.606;2023-02-05T06:59:59;6.30;99.50
10411;DHT22;5251;52.112;8.606;2023-02-05T07:02:25;6.30;99.50
10411;DHT22;5251;52.112;8.606;2023-02-05T07:04:50;6.30;99.60
10411;DHT22;5251;52.112;8.606;2023-02-05T07:07:16;6.30;99.60
10411;DHT22;5251;52.112;8.606;2023-02-05T07:09:42;6.30;99.70
10411;DHT22;5251;52.112;8.606;2023-02-05T07:12:08;6.30;99.70
10411;DHT22;5251;52.112;8.606;2023-02-05T07:14:37;6.30;99.70
10411;DHT22;5251;52.112;8.606;2023-02-05T07:17:03;6.30;99.80
10411;DHT22;5251;52.112;8.606;2023-02-05T07:19:29;6.30;99.80
10411;DHT22;5251;52.112;8.606;2023-02-05T07:21:54;6.30;99.90
10411;DHT22;5251;52.112;8.606;2023-02-05T07:24:20;6.30;99.90
10411;DHT22;5251;52.112;8.606;2023-02-05T07:26:45;6.30;99.90
10411;DHT22;5251;52.112;8.606;2023-02-05T07:29:11;6.30;99.90
10411;DHT22;5251;52.112;8.606;2023-02-05T07:31:36;6.30;99.90
10411;DHT22;5251;52.112;8.606;2023-02-05T07:34:02;6.30;99.90
10411;DHT22;5251;52.112;8.606;2023-02-05T07:36:28;6.40;99.90
10411;DHT22;5251;52.112;8.606;2023-02-05T07:38:53;6.40;99.90
10411;DHT22;5251;52.112;8.606;2023-02-05T07:41:19;6.40;99.90
10411;DHT22;5251;52.112;8.606;2023-02-05T07:43:45;6.40;99.90
10411;DHT22;5251;52.112;8.606;2023-02-05T07:46:12;6.40;99.90
10411;DHT22;5251;52.112;8.606;2023-02-05T07:48:38;6.30;99.90
10411;DHT22;5251;52.112;8.606;2023-02-05T07:51:05;6.40;99.90
10411;DHT22;5251;52.112;8.606;2023-02-05T07:53:30;6.40;99.90
10411;DHT22;5251;52.112;8.606;2023-02-05T07:55:56;6.40;99.90
10411;DHT22;5251;52.112;8.606;2023-02-05T07:58:22;6.40;99.90
10411;DHT22;5251;52.112;8.606;2023-02-05T08:00:48;6.40;99.90
10411;DHT22;5251;52.112;8.606;2023-02-05T08:03:13;6.40;99.90
10411;DHT22;5251;52.112;8.606;2023-02-05T08:05:39;6.40;99.90
10411;DHT22;5251;52.112;8.606;2023-02-05T08:08:05;6.40;99.90
10411;DHT22;5251;52.112;8.606;2023-02-05T08:10:32;6.40;99.90
10411;DHT22;5251;52.112;8.606;2023-02-05T08:12:57;6.40;99.90
10411;DHT22;5251;52.112;8.606;2023-02-05T08:15:23;6.40;99.90
10411;DHT22;5251;52.112;8.606;2023-02-05T08:17:49;6.40;99.90
10411;DHT22;5251;52.112;8.606;2023-02-05T08:20:14;6.40;99.90
10411;DHT22;5251;52.112;8.606;2023-02-05T08:22:41;6.40;99.90
10411;DHT22;5251;52.112;8.606;2023-02-05T08:25:09;6.40;99.90
10411;DHT22;5251;52.112;8.606;2023-02-05T08:27:37;6.40;99.90
10411;DHT22;5251;52.112;8.606;2023-02-05T08:30:05;6.40;99.90
10411;DHT22;5251;52.112;8.606;2023-02-05T08:32:31;6.40;99.90
10411;DHT22;5251;52.112;8.606;2023-02-05T08:34:56;6.50;99.90
10411;DHT22;5251;52.112;8.606;2023-02-05T08:37:23;6.50;99.90
10411;DHT22;5251;52.112;8.606;2023-02-05T08:39:48;6.50;99.90
10411;DHT22;5251;52.112;8.606;2023-02-05T08:42:15;6.60;99.90
10411;DHT22;5251;52.112;8.606;2023-02-05T08:44:40;6.60;99.90
10411;DHT22;5251;52.112;8.606;2023-02-05T08:47:06;6.60;99.90
10411;DHT22;5251;52.112;8.606;2023-02-05T08:49:32;6.60;99.90
10411;DHT22;5251;52.112;8.606;2023-02-05T08:51:57;6.70;99.90
10411;DHT22;5251;52.112;8.606;2023-02-05T08:54:23;6.70;99.90
10411;DHT22;5251;52.112;8.606;2023-02-05T08:56:49;6.70;99.90
10411;DHT22;5251;52.112;8.606;2023-02-05T08:59:15;6.80;99.90
10411;DHT22;5251;52.112;8.606;2023-02-05T09:01:41;6.80;99.90
10411;DHT22;5251;52.112;8.606;2023-02-05T09:04:10;6.90;99.90
10411;DHT22;5251;52.112;8.606;2023-02-05T09:06:36;6.90;99.90
10411;DHT22;5251;52.112;8.606;2023-02-05T09:09:02;6.90;99.90
10411;DHT22;5251;52.112;8.606;2023-02-05T09:11:28;6.90;99.90
10411;DHT22;5251;52.112;8.606;2023-02-05T09:13:55;7.00;99.90
10411;DHT22;5251;52.112;8.606;2023-02-05T09:16:21;7.00;99.90
10411;DHT22;5251;52.112;8.606;2023-02-05T09:18:46;7.10;99.90
10411;DHT22;5251;52.112;8.606;2023-02-05T09:21:12;7.10;99.90
10411;DHT22;5251;52.112;8.606;2023-02-05T09:23:38;7.20;99.90
10411;DHT22;5251;52.112;8.606;2023-02-05T09:26:04;7.20;99.90
10411;DHT22;5251;52.112;8.606;2023-02-05T09:28:29;7.30;99.90
10411;DHT22;5251;52.112;8.606;2023-02-05T09:30:55;7.30;99.90
10411;DHT22;5251;52.112;8.606;2023-02-05T09:33:21;7.40;99.90
10411;DHT22;5251;52.112;8.606;2023-02-05T09:35:46;7.50;99.90
10411;DHT22;5251;52.112;8.606;2023-02-05T09:38:13;7.50;99.90
10411;DHT22;5251;52.112;8.606;2023-02-05T09:40:47;7.60;99.90
10411;DHT22;5251;52.112;8.606;2023-02-05T09:48:52;7.80;99.90
10411;DHT22;5251;52.112;8.606;2023-02-05T09:51:28;7.80;99.90
10411;DHT22;5251;52.112;8.606;2023-02-05T09:53:59;7.90;99.90
10411;DHT22;5251;52.112;8.606;2023-02-05T09:56:27;8.00;99.90
10411;DHT22;5251;52.112;8.606;2023-02-05T09:58:54;8.00;99.90
10411;DHT22;5251;52.112;8.606;2023-02-05T10:04:00;8.10;99.90
10411;DHT22;5251;52.112;8.606;2023-02-05T10:06:40;8.20;99.90
10411;DHT22;5251;52.112;8.606;2023-02-05T10:09:15;8.20;99.90
10411;DHT22;5251;52.112;8.606;2023-02-05T10:23:15;8.50;99.90
10411;DHT22;5251;52.112;8.606;2023-02-05T10:26:14;8.60;99.90
10411;DHT22;5251;52.112;8.606;2023-02-05T10:33:51;8.60;99.90
10411;DHT22;5251;52.112;8.606;2023-02-05T10:36:22;8.70;99.90
10411;DHT22;5251;52.112;8.606;2023-02-05T10:38:51;8.70;99.90
10411;DHT22;5251;52.112;8.606;2023-02-05T10:41:30;8.80;99.90
10411;DHT22;5251;52.112;8.606;2023-02-05T10:46:53;8.80;99.90
10411;DHT22;5251;52.112;8.606;2023-02-05T10:49:36;8.90;99.90
10411;DHT22;5251;52.112;8.606;2023-02-05T10:52:09;8.90;99.90
10411;DHT22;5251;52.112;8.606;2023-02-05T10:54:36;8.90;99.90
10411;DHT22;5251;52.112;8.606;2023-02-05T10:57:02;9.00;99.90
10411;DHT22;5251;52.112;8.606;2023-02-05T10:59:31;9.00;99.90
10411;DHT22;5251;52.112;8.606;2023-02-05T11:02:02;9.00;99.90
10411;DHT22;5251;52.112;8.606;2023-02-05T11:04:49;9.00;99.90
10411;DHT22;5251;52.112;8.606;2023-02-05T11:07:27;9.10;99.90
10411;DHT22;5251;52.112;8.606;2023-02-05T11:09:54;9.10;99.90
10411;DHT22;5251;52.112;8.606;2023-02-05T11:12:28;9.30;99.90
10411;DHT22;5251;52.112;8.606;2023-02-05T11:14:57;9.40;99.90
10411;DHT22;5251;52.112;8.606;2023-02-05T11:17:29;9.60;99.90
10411;DHT22;5251;52.112;8.606;2023-02-05T11:20:06;9.70;99.90
10411;DHT22;5251;52.112;8.606;2023-02-05T11:22:45;9.80;99.90
10411;DHT22;5251;52.112;8.606;2023-02-05T11:27:48;10.10;99.90
10411;DHT22;5251;52.112;8.606;2023-02-05T11:30:33;10.20;99.90
10411;DHT22;5251;52.112;8.606;2023-02-05T11:33:26;10.30;99.90
10411;DHT22;5251;52.112;8.606;2023-02-05T11:36:06;10.30;99.90
10411;DHT22;5251;52.112;8.606;2023-02-05T11:38:49;10.40;99.90
10411;DHT22;5251;52.112;8.606;2023-02-05T11:41:36;10.40;99.90
10411;DHT22;5251;52.112;8.606;2023-02-05T11:44:27;10.40;99.90
10411;DHT22;5251;52.112;8.606;2023-02-05T11:46:55;10.30;99.70
10411;DHT22;5251;52.112;8.606;2023-02-05T11:49:40;10.30;99.70
10411;DHT22;5251;52.112;8.606;2023-02-05T11:52:14;10.20;99.70
10411;DHT22;5251;52.112;8.606;2023-02-05T11:54:45;10.20;99.70
10411;DHT22;5251;52.112;8.606;2023-02-05T11:59:57;10.10;99.70
10411;DHT22;5251;52.112;8.606;2023-02-05T12:02:30;10.00;99.70
10411;DHT22;5251;52.112;8.606;2023-02-05T12:05:25;9.90;99.90
10411;DHT22;5251;52.112;8.606;2023-02-05T12:08:12;9.80;99.90
10411;DHT22;5251;52.112;8.606;2023-02-05T12:18:40;9.50;99.90
10411;DHT22;5251;52.112;8.606;2023-02-05T12:26:43;9.30;99.90
10411;DHT22;5251;52.112;8.606;2023-02-05T12:29:35;9.20;99.90
10411;DHT22;5251;52.112;8.606;2023-02-05T12:32:39;9.20;99.90
10411;DHT22;5251;52.112;8.606;2023-02-05T12:35:27;9.10;99.90
10411;DHT22;5251;52.112;8.606;2023-02-05T12:59:10;8.90;99.90
10411;DHT22;5251;52.112;8.606;2023-02-05T13:01:42;8.90;99.90
10411;DHT22;5251;52.112;8.606;2023-02-05T13:04:32;8.90;99.90
10411;DHT22;5251;52.112;8.606;2023-02-05T13:07:29;8.90;99.90
10411;DHT22;5251;52.112;8.606;2023-02-05T13:10:26;8.90;99.90
10411;DHT22;5251;52.112;8.606;2023-02-05T13:13:15;8.80;99.90
10411;DHT22;5251;52.112;8.606;2023-02-05T13:15:43;8.80;99.90
10411;DHT22;5251;52.112;8.606;2023-02-05T13:20:49;8.80;99.90
10411;DHT22;5251;52.112;8.606;2023-02-05T13:23:37;8.80;99.90
10411;DHT22;5251;52.112;8.606;2023-02-05T13:26:34;8.80;99.90
10411;DHT22;5251;52.112;8.606;2023-02-05T13:29:22;8.80;99.90
10411;DHT22;5251;52.112;8.606;2023-02-05T13:31:52;8.70;99.90
10411;DHT22;5251;52.112;8.606;2023-02-05T13:34:19;8.70;99.90
10411;DHT22;5251;52.112;8.606;2023-02-05T13:40:20;8.60;99.90
10411;DHT22;5251;52.112;8.606;2023-02-05T13:43:01;8.50;99.90
10411;DHT22;5251;52.112;8.606;2023-02-05T13:45:44;8.50;99.90
10411;DHT22;5251;52.112;8.606;2023-02-05T13:54:55;8.40;99.90
10411;DHT22;5251;52.112;8.606;2023-02-05T13:59:54;8.30;99.90
10411;DHT22;5251;52.112;8.606;2023-02-05T14:02:40;8.20;99.90
10411;DHT22;5251;52.112;8.606;2023-02-05T14:05:07;8.10;99.90
10411;DHT22;5251;52.112;8.606;2023-02-05T14:07:45;8.10;99.90
10411;DHT22;5251;52.112;8.606;2023-02-05T14:10:31;8.10;99.90
10411;DHT22;5251;52.112;8.606;2023-02-05T14:13:21;8.10;99.90
10411;DHT22;5251;52.112;8.606;2023-02-05T14:15:49;8.10;99.90
10411;DHT22;5251;52.112;8.606;2023-02-05T14:21:47;8.10;99.90
10411;DHT22;5251;52.112;8.606;2023-02-05T14:26:54;8.10;99.90
10411;DHT22;5251;52.112;8.606;2023-02-05T14:29:42;8.10;99.90
10411;DHT22;5251;52.112;8.606;2023-02-05T14:37:02;8.10;99.90
10411;DHT22;5251;52.112;8.606;2023-02-05T14:39:30;8.10;99.90
10411;DHT22;5251;52.112;8.606;2023-02-05T14:42:02;8.10;99.90
10411;DHT22;5251;52.112;8.606;2023-02-05T14:44:37;8.10;99.90
10411;DHT22;5251;52.112;8.606;2023-02-05T14:47:27;8.10;99.90
10411;DHT22;5251;52.112;8.606;2023-02-05T14:50:02;8.10;99.90
10411;DHT22;5251;52.112;8.606;2023-02-05T14:52:35;8.10;99.90
10411;DHT22;5251;52.112;8.606;2023-02-05T14:57:52;8.10;99.90
10411;DHT22;5251;52.112;8.606;2023-02-05T15:00:23;8.10;99.90
10411;DHT22;5251;52.112;8.606;2023-02-05T15:02:54;8.10;99.90
10411;DHT22;5251;52.112;8.606;2023-02-05T15:11:12;8.00;99.90
10411;DHT22;5251;52.112;8.606;2023-02-05T15:13:39;8.00;99.90
10411;DHT22;5251;52.112;8.606;2023-02-05T15:32:04;7.90;99.90
10411;DHT22;5251;52.112;8.606;2023-02-05T15:34:53;7.90;99.90
10411;DHT22;5251;52.112;8.606;2023-02-05T15:37:28;7.80;99.90
10411;DHT22;5251;52.112;8.606;2023-02-05T15:42:42;7.80;99.90
10411;DHT22;5251;52.112;8.606;2023-02-05T15:45:32;7.80;99.90
10411;DHT22;5251;52.112;8.606;2023-02-05T15:50:58;7.70;99.90
10411;DHT22;5251;52.112;8.606;2023-02-05T15:53:38;7.70;99.90
10411;DHT22;5251;52.112;8.606;2023-02-05T15:56:22;7.70;99.90
10411;DHT22;5251;52.112;8.606;2023-02-05T16:01:42;7.70;99.90
10411;DHT22;5251;52.112;8.606;2023-02-05T16:04:32;7.70;99.90
10411;DHT22;5251;52.112;8.606;2023-02-05T16:06:59;7.60;99.90
10411;DHT22;5251;52.112;8.606;2023-02-05T16:09:27;7.60;99.90
10411;DHT22;5251;52.112;8.606;2023-02-05T16:11:53;7.60;99.90
10411;DHT22;5251;52.112;8.606;2023-02-05T16:14:24;7.70;99.90
10411;DHT22;5251;52.112;8.606;2023-02-05T16:17:19;7.60;99.90
10411;DHT22;5251;52.112;8.606;2023-02-05T16:19:53;7.60;99.90
10411;DHT22;5251;52.112;8.606;2023-02-05T16:22:43;7.60;99.90
10411;DHT22;5251;52.112;8.606;2023-02-05T16:27:52;7.60;99.90
10411;DHT22;5251;52.112;8.606;2023-02-05T16:30:32;7.60;99.90
10411;DHT22;5251;52.112;8.606;2023-02-05T16:33:00;7.60;99.90
10411;DHT22;5251;52.112;8.606;2023-02-05T16:35:35;7.60;99.90
10411;DHT22;5251;52.112;8.606;2023-02-05T16:38:03;7.60;99.90
10411;DHT22;5251;52.112;8.606;2023-02-05T16:40:38;7.50;99.90
10411;DHT22;5251;52.112;8.606;2023-02-05T16:51:04;7.60;99.90
10411;DHT22;5251;52.112;8.606;2023-02-05T16:53:32;7.50;99.90
10411;DHT22;5251;52.112;8.606;2023-02-05T16:56:20;7.50;99.90
10411;DHT22;5251;52.112;8.606;2023-02-05T16:58:53;7.50;99.90
10411;DHT22;5251;52.112;8.606;2023-02-05T17:01:22;7.40;99.90
10411;DHT22;5251;52.112;8.606;2023-02-05T17:03:49;7.40;99.90
10411;DHT22;5251;52.112;8.606;2023-02-05T17:06:16;7.40;99.90
10411;DHT22;5251;52.112;8.606;2023-02-05T17:08:43;7.40;99.90
10411;DHT22;5251;52.112;8.606;2023-02-05T17:11:51;7.40;99.90
10411;DHT22;5251;52.112;8.606;2023-02-05T17:14:31;7.40;99.90
10411;DHT22;5251;52.112;8.606;2023-02-05T17:17:23;7.30;99.90
10411;DHT22;5251;52.112;8.606;2023-02-05T17:20:18;7.30;99.90
10411;DHT22;5251;52.112;8.606;2023-02-05T17:25:29;7.30;99.90
10411;DHT22;5251;52.112;8.606;2023-02-05T17:27:57;7.30;99.90
10411;DHT22;5251;52.112;8.606;2023-02-05T17:30:23;7.30;99.90
10411;DHT22;5251;52.112;8.606;2023-02-05T17:32:48;7.30;99.90
10411;DHT22;5251;52.112;8.606;2023-02-05T17:35:16;7.30;99.90
10411;DHT22;5251;52.112;8.606;2023-02-05T17:37:42;7.30;99.90
10411;DHT22;5251;52.112;8.606;2023-02-05T17:40:11;7.20;99.90
10411;DHT22;5251;52.112;8.606;2023-02-05T17:42:37;7.20;99.90
10411;DHT22;5251;52.112;8.606;2023-02-05T17:45:22;7.20;99.90
10411;DHT22;5251;52.112;8.606;2023-02-05T17:47:49;7.20;99.90
10411;DHT22;5251;52.112;8.606;2023-02-05T17:50:15;7.20;99.90
10411;DHT22;5251;52.112;8.606;2023-02-05T17:52:41;7.20;99.90
10411;DHT22;5251;52.112;8.606;2023-02-05T17:55:14;7.20;99.90
10411;DHT22;5251;52.112;8.606;2023-02-05T17:57:41;7.20;99.90
10411;DHT22;5251;52.112;8.606;2023-02-05T18:00:17;7.20;99.90
10411;DHT22;5251;52.112;8.606;2023-02-05T18:02:42;7.20;99.90
10411;DHT22;5251;52.112;8.606;2023-02-05T18:05:08;7.10;99.90
10411;DHT22;5251;52.112;8.606;2023-02-05T18:07:42;7.20;99.90
10411;DHT22;5251;52.112;8.606;2023-02-05T18:10:14;7.10;99.90
10411;DHT22;5251;52.112;8.606;2023-02-05T18:12:39;7.10;99.90
10411;DHT22;5251;52.112;8.606;2023-02-05T18:15:06;7.10;99.90
10411;DHT22;5251;52.112;8.606;2023-02-05T18:17:31;7.00;99.90
10411;DHT22;5251;52.112;8.606;2023-02-05T18:19:57;7.10;99.90
10411;DHT22;5251;52.112;8.606;2023-02-05T18:22:22;7.00;99.90
10411;DHT22;5251;52.112;8.606;2023-02-05T18:24:48;7.00;99.90
10411;DHT22;5251;52.112;8.606;2023-02-05T18:27:14;7.00;99.90
10411;DHT22;5251;52.112;8.606;2023-02-05T18:29:40;7.00;99.90
10411;DHT22;5251;52.112;8.606;2023-02-05T18:32:06;7.00;99.90
10411;DHT22;5251;52.112;8.606;2023-02-05T18:34:31;7.00;99.90
10411;DHT22;5251;52.112;8.606;2023-02-05T18:36:57;7.00;99.90
10411;DHT22;5251;52.112;8.606;2023-02-05T18:39:23;6.90;99.90
10411;DHT22;5251;52.112;8.606;2023-02-05T18:41:53;7.00;99.90
10411;DHT22;5251;52.112;8.606;2023-02-05T18:44:18;7.10;99.90
10411;DHT22;5251;52.112;8.606;2023-02-05T18:46:44;7.00;99.90
10411;DHT22;5251;52.112;8.606;2023-02-05T18:49:10;7.10;99.90
10411;DHT22;5251;52.112;8.606;2023-02-05T18:51:35;7.00;99.90
10411;DHT22;5251;52.112;8.606;2023-02-05T18:54:02;7.00;99.90
10411;DHT22;5251;52.112;8.606;2023-02-05T18:56:27;7.00;99.90
10411;DHT22;5251;52.112;8.606;2023-02-05T18:58:56;7.10;99.90
10411;DHT22;5251;52.112;8.606;2023-02-05T19:01:27;7.10;99.90
10411;DHT22;5251;52.112;8.606;2023-02-05T19:03:54;7.10;99.90
10411;DHT22;5251;52.112;8.606;2023-02-05T19:06:21;7.10;99.90